Date,TemperatureHighF,TemperatureAvgF,TemperatureLowF,DewpointHighF,DewpointAvgF,DewpointLowF,HumidityHigh,HumidityAvg,HumidityLow,PressureMaxIn,PressureMinIn,WindSpeedMaxMPH,WindSpeedAvgMPH,GustSpeedMaxMPH,PrecipitationSumIn
2013-1-1,80,65,53,55,39,30,78,44,17,30.27,30.06,14,2,14,0.00
2013-1-2,84,68,58,62,51,39,83,58,21,30.09,30.00,10,2,10,0.00
2013-1-3,76,65,59,62,55,44,87,73,33,30.24,30.06,172,3,172,0.08
2013-1-4,63,58,55,54,50,44,82,75,51,30.36,30.18,10,3,10,0.12
2013-1-5,84,64,53,50,42,28,78,48,16,30.36,30.21,12,3,12,0.00
2013-1-6,85,67,60,64,51,40,83,61,21,30.30,30.12,8,3,8,0.00
2013-1-7,70,63,59,58,47,31,80,58,25,30.27,30.15,15,5,15,0.13
2013-1-8,92,73,61,60,47,30,81,47,12,30.27,30.15,10,4,10,0.00
2013-1-9,90,77,68,65,49,33,82,44,15,30.33,30.18,57,4,57,0.00
2013-1-10,91,76,67,64,45,24,79,41,10,30.36,30.24,15,5,15,0.00
2013-1-11,88,74,64,62,44,25,77,40,10,30.30,30.12,14,3,14,0.00
2013-1-12,88,73,62,61,46,28,80,45,13,30.21,30.09,14,3,14,0.00
2013-1-13,86,73,65,54,45,0,65,39,18,30.21,30.06,11,3,11,0.00
2013-1-14,87,72,62,60,41,23,77,40,11,30.24,30.12,172,2,172,0.00
2013-1-15,86,70,59,63,42,26,78,41,13,30.18,30.06,57,2,229,0.00
2013-1-16,88,72,62,64,44,23,81,44,10,30.15,30.00,60,2,60,0.00
2013-1-17,72,63,53,64,47,25,81,58,25,30.24,30.00,58,6,58,0.12
2013-1-18,69,55,41,34,26,19,44,34,17,30.39,30.18,18,6,18,0.00
2013-1-19,83,66,53,41,33,23,46,31,11,30.33,30.15,15,5,15,0.00
2013-1-20,85,66,59,48,40,28,67,42,16,30.21,30.06,11,3,11,0.00
2013-1-21,87,66,59,43,37,28,50,36,13,30.15,30.06,12,2,12,0.00
2013-1-22,74,60,50,35,19,7,41,22,11,30.36,30.09,12,3,12,0.00
2013-1-23,76,57,44,28,18,9,47,24,10,30.41,30.30,13,3,13,0.00
2013-1-24,76,58,42,42,29,2,67,38,13,30.39,30.30,13,2,13,0.00
2013-1-25,82,61,48,55,32,17,78,42,12,30.39,30.24,11,2,11,0.00
2013-1-26,82,64,50,56,39,21,79,47,12,30.36,30.21,12,2,12,0.00
2013-1-27,89,67,50,59,35,18,79,41,10,30.36,30.24,11,2,11,0.00
2013-1-28,87,72,61,58,42,22,78,41,11,30.39,30.24,14,4,14,0.00
2013-1-29,87,72,61,63,46,26,80,46,11,30.30,30.12,15,4,15,0.00
2013-1-30,83,74,67,67,47,36,64,41,20,30.15,29.94,30,9,30,0.00
2013-3-24,82,74,68,59,53,48,63,49,32,29.97,29.65,15,4,15,3.24
2013-3-25,71,63,56,56,25,10,68,27,12,30.12,29.76,18,6,18,0.00
2013-3-26,60,54,46,22,10,4,28,17,14,30.30,30.06,22,6,22,0.00
2013-3-27,62,50,39,20,12,5,39,22,14,30.39,30.27,12,4,229,0.00
2013-3-28,85,56,41,30,19,9,53,28,10,30.36,30.24,13,3,13,0.00
2013-3-29,85,62,45,31,23,12,50,27,9,30.39,30.21,11,3,11,0.00
2013-3-30,83,64,48,37,28,15,51,30,11,30.30,30.15,13,3,13,0.00
2013-3-31,82,68,56,50,32,21,72,30,12,30.18,30.03,12,4,13,63.98
2013-4-1,86,73,66,50,41,24,56,34,11,30.06,29.97,14,4,14,0.00
2013-4-2,92,72,62,60,39,20,77,38,10,30.12,30.00,10,2,10,0.00
2013-4-3,88,73,63,58,40,22,66,35,10,30.09,29.97,17,4,17,0.05
2013-4-4,77,70,68,62,51,33,77,51,21,30.06,29.85,21,6,21,0.45
2013-4-5,76,68,62,59,41,20,71,41,13,30.03,29.82,14,4,14,0.08
2013-4-6,85,67,53,42,31,19,50,30,11,30.15,30.00,13,4,13,0.00
2013-4-7,89,70,58,52,33,20,70,32,10,30.18,30.06,13,3,13,0.00
2013-4-8,91,75,64,43,33,22,44,25,10,30.15,30.06,13,4,13,0.00
2013-4-9,92,76,63,49,35,22,53,26,9,30.18,30.06,13,4,13,0.00
2013-4-10,96,77,63,45,33,22,49,24,9,30.18,30.00,11,4,11,0.00
2013-4-11,93,79,72,57,44,24,58,33,9,30.03,29.82,20,7,20,0.04
2013-4-12,80,76,70,58,53,0,56,46,34,29.94,29.79,27,6,27,0.08
2013-4-13,95,77,68,60,40,23,65,32,9,30.00,29.88,11,2,11,0.00
2013-4-14,89,75,67,52,42,28,45,32,13,30.06,29.85,19,5,19,0.05
2013-4-15,98,79,68,43,34,23,41,22,8,30.12,29.94,14,3,14,0.00
2013-4-16,102,82,69,53,36,23,56,24,7,30.18,30.06,15,4,15,0.00
2013-4-17,98,79,67,51,34,22,53,24,8,30.18,30.03,15,5,15,0.00
2013-4-18,96,80,68,50,35,23,51,24,9,30.09,29.94,15,4,15,0.00
2013-4-19,88,76,71,64,52,24,74,46,10,30.06,29.94,17,5,17,0.12
2013-4-20,75,67,61,41,36,28,45,33,18,30.18,30.03,11,4,11,0.09
2013-4-21,89,71,60,53,39,24,55,35,10,30.18,30.06,13,5,13,0.00
2013-4-22,90,73,67,61,44,23,78,43,10,30.15,30.00,16,4,16,0.16
2013-4-23,97,76,65,46,33,20,49,25,9,30.15,30.03,14,5,14,0.00
2013-4-24,91,74,61,49,35,23,59,29,10,30.18,30.09,115,4,115,0.00
2013-4-25,90,75,63,58,37,23,67,31,10,30.24,30.12,11,3,11,0.00
2013-4-26,91,77,66,52,36,24,51,26,10,30.27,30.18,11,3,11,0.00
2013-4-27,93,78,67,51,35,23,55,25,9,30.27,30.09,12,4,12,0.00
2013-4-28,92,78,66,46,34,23,45,24,9,30.15,30.00,16,4,16,0.00
2013-4-29,89,78,72,48,33,0,41,21,10,30.06,29.94,14,4,14,0.00
2013-4-30,98,78,66,60,40,24,77,33,8,30.06,29.91,10,4,13,1.83
2013-5-1,75,70,67,60,54,48,76,57,40,30.06,29.94,12,4,12,0.95
2013-5-2,91,73,65,61,48,28,77,47,12,30.03,29.82,15,3,15,0.71
2013-5-3,90,76,68,62,43,23,77,37,10,29.88,29.74,115,4,115,0.21
2013-5-4,84,74,67,51,41,23,56,33,14,29.85,29.71,13,4,13,0.00
2013-5-5,78,70,64,55,29,15,66,25,11,29.97,29.82,15,5,15,0.04
2013-5-6,76,70,63,43,27,18,40,21,13,30.06,29.91,14,4,14,0.00
2013-5-7,82,71,59,39,28,20,40,22,12,30.09,30.00,14,3,14,0.00
2013-5-8,84,72,60,50,32,21,52,26,11,30.18,30.06,12,2,12,0.00
2013-5-9,92,75,61,52,34,22,56,27,9,30.18,30.12,12,2,12,0.00
2013-5-10,95,77,64,56,36,22,64,28,9,30.18,30.00,13,3,13,0.00
2013-5-11,93,78,70,56,41,0,54,31,9,30.09,30.00,17,3,17,0.00
2013-5-12,92,79,70,60,39,23,59,29,9,30.09,29.94,13,3,13,0.00
2013-5-13,99,73,69,49,29,14,45,23,8,30.18,30.03,10,1,10,0.98
2013-5-14,74,71,68,21,16,14,14,12,11,30.27,30.12,0,0,0,0.00
2013-5-15,74,71,68,21,17,14,14,13,11,30.27,30.09,0,0,0,0.00
2013-5-16,74,71,68,21,17,2,15,13,6,30.18,30.00,0,0,0,0.00
2013-5-17,71,70,69,15,15,14,12,12,12,30.09,30.06,0,0,0,0.00
2013-9-6,76,74,69,44,41,14,33,31,12,30.06,29.94,4,0,4,14.68
2013-9-7,105,82,69,51,38,23,49,26,7,29.97,29.88,9,1,9,14.68
2013-9-8,106,83,70,62,38,22,72,27,7,29.94,29.82,8,1,8,14.68
2013-9-9,104,85,72,52,34,23,47,20,7,30.00,29.88,8,1,8,0.00
2013-9-10,102,85,73,50,33,22,43,19,7,30.06,29.94,8,2,8,0.00
2013-9-11,103,85,73,50,33,22,43,19,7,30.06,29.94,8,2,8,0.00
2013-9-12,106,84,73,51,35,23,43,20,6,30.00,29.82,7,1,7,0.00
2013-9-13,101,84,72,53,36,22,47,23,7,29.91,29.76,8,1,8,0.00
2013-9-14,103,85,73,58,36,23,52,22,7,29.94,29.79,8,1,8,0.00
2013-9-15,108,84,73,50,36,22,39,22,6,30.06,29.91,8,1,8,0.00
2013-9-16,109,81,72,67,47,24,76,41,6,30.06,29.94,10,1,10,0.78
2013-9-17,103,81,71,71,46,23,77,42,7,30.03,29.88,6,1,6,0.00
2013-9-18,101,81,73,57,38,23,54,27,7,30.03,29.91,8,1,8,0.00
2013-9-19,104,82,73,50,38,22,42,25,7,30.06,29.94,8,2,8,15.46
2013-9-20,103,83,70,50,35,22,47,22,7,30.00,29.85,6,1,6,0.00
2013-9-21,101,83,70,44,31,22,35,17,7,29.94,29.76,8,1,8,0.00
2013-9-22,98,82,76,76,42,23,76,32,8,29.82,29.71,8,0,8,0.21
2013-9-23,84,78,75,75,56,41,76,49,24,29.94,29.79,5,0,5,16.42
2013-9-24,85,78,74,74,56,38,77,52,20,29.94,29.82,6,1,6,1.28
2013-9-25,80,75,70,71,59,40,80,59,26,29.91,29.76,11,2,11,5.24
2013-9-26,99,83,75,64,41,23,61,26,8,29.88,29.76,11,3,11,0.00
2013-9-27,93,78,69,51,37,22,51,26,9,29.97,29.82,11,2,11,0.00
2013-9-28,97,78,70,57,42,24,56,32,8,30.00,29.88,10,2,10,23.14
2013-9-29,97,80,69,49,36,23,48,25,8,30.00,29.88,9,2,9,0.00
2013-9-30,100,80,69,57,38,23,62,27,8,30.00,29.88,5,1,6,0.00
2013-10-1,101,83,71,57,38,0,54,25,7,30.06,29.94,7,1,7,23.14
2013-10-2,98,82,71,47,34,23,42,21,8,30.06,29.94,7,1,7,0.00
2013-10-3,101,82,71,47,36,23,40,23,7,30.06,29.94,6,1,6,0.00
2013-10-4,100,82,73,51,38,23,42,24,8,30.09,29.97,6,1,6,0.00
2013-10-5,102,82,72,49,37,24,43,23,7,30.06,29.94,8,1,8,23.14
2013-10-6,102,81,70,64,39,23,68,27,7,30.00,29.82,9,1,9,23.14
2013-10-7,93,80,72,68,45,25,76,36,9,29.85,29.74,13,2,13,0.26
2013-10-8,96,82,74,46,36,23,33,22,9,29.97,29.76,8,2,8,0.00
2013-10-9,87,76,68,38,30,21,29,20,11,30.06,29.94,8,2,8,0.00
2013-10-10,92,75,64,42,30,16,42,23,9,30.09,29.94,58,1,58,23.40
2013-10-11,95,76,64,54,31,14,62,24,9,30.06,29.94,7,1,7,0.00
2013-10-12,93,75,64,46,28,14,44,21,9,30.06,29.97,9,1,9,0.00
2013-10-13,92,74,61,41,26,13,39,19,9,30.09,29.97,9,1,9,0.00
2013-10-14,92,75,64,42,27,16,42,19,10,30.09,29.94,58,2,58,0.00
2013-10-15,84,73,66,43,32,21,43,25,11,30.03,29.91,10,2,10,0.00
2013-10-16,90,75,66,54,33,20,59,25,10,30.00,29.88,7,1,7,0.00
2013-10-17,93,76,67,58,36,22,63,28,9,30.00,29.88,7,1,172,0.00
2013-10-18,98,78,68,62,38,22,65,29,8,30.00,29.88,8,1,8,23.40
2013-10-19,97,79,70,64,39,23,73,29,8,29.97,29.88,8,1,8,0.00
2013-10-20,93,79,71,63,38,22,70,27,9,29.97,29.85,7,1,7,23.40
2013-10-21,93,79,70,49,35,22,44,24,9,30.03,29.91,9,1,9,0.00
2013-10-22,94,78,70,62,41,22,66,33,9,29.97,29.82,11,1,11,0.08
2013-10-23,82,73,66,64,33,12,75,30,10,30.03,29.82,11,2,11,23.85
2013-10-24,75,66,56,18,13,8,22,13,10,30.21,30.00,10,2,10,0.00
2013-10-25,82,66,53,34,20,12,44,20,9,30.30,30.18,8,2,8,0.00
2013-10-26,84,66,55,31,19,11,36,18,9,30.27,30.12,9,2,9,23.85
2013-10-27,81,64,53,34,19,9,41,19,9,30.18,30.06,10,1,10,23.85
2013-10-28,86,67,56,31,20,12,34,18,8,30.21,30.12,10,1,10,0.00
2013-10-29,87,73,63,39,27,14,40,21,10,30.27,30.12,7,2,7,0.00
2013-10-30,89,75,66,38,27,15,34,19,10,30.27,30.09,7,1,7,23.85
2013-10-31,89,74,64,45,30,15,43,23,10,30.15,29.94,5,0,5,0.00
2013-11-1,93,77,69,50,37,22,45,26,9,30.03,29.88,10,1,10,23.85
2013-11-2,76,71,60,66,41,16,79,40,13,30.03,29.82,10,1,10,2.04
2013-11-3,78,65,56,38,18,10,46,19,10,30.15,30.00,8,2,8,0.00
2013-11-4,80,69,58,32,17,10,27,13,10,30.18,30.09,10,3,10,0.00
2013-11-5,85,73,63,42,28,16,41,21,10,30.18,30.06,13,2,229,0.00
2013-11-6,89,75,68,38,28,20,32,19,10,30.15,30.00,8,2,8,0.00
2013-11-7,85,72,66,44,32,20,40,25,11,30.09,29.97,7,1,7,0.00
2013-11-8,79,70,63,46,24,12,42,19,10,30.15,30.00,10,2,10,0.00
2013-11-9,86,73,62,26,20,14,25,14,10,30.18,30.06,8,2,8,0.00
2013-11-10,84,72,65,32,25,15,27,18,11,30.21,30.06,9,2,229,0.00
2013-11-11,83,71,64,37,29,18,35,23,11,30.18,30.06,6,2,6,25.89
2013-11-12,82,70,63,46,30,14,47,25,12,30.15,30.03,9,1,9,0.00
2013-11-13,70,61,51,14,11,7,16,14,12,30.33,30.09,12,4,12,0.00
2013-11-14,67,56,50,19,13,6,27,19,12,30.33,30.18,8,2,8,0.00
2013-11-15,74,67,62,38,26,12,35,22,11,30.21,30.06,172,1,172,0.04
2013-11-16,76,70,66,63,44,32,76,42,21,30.15,30.00,172,1,172,0.91
2013-11-17,90,75,67,40,29,20,34,20,10,30.09,29.97,6,1,6,0.00
2013-11-18,86,74,66,54,36,22,52,29,11,30.03,29.91,8,1,8,0.00
2013-11-19,82,73,66,50,32,14,48,26,12,29.97,29.85,6,2,6,26.80
2013-11-20,82,71,63,36,29,21,32,21,12,30.09,29.94,7,1,7,0.00
2013-11-21,86,75,69,40,32,21,34,22,11,30.18,30.06,9,2,9,26.80
2013-11-22,87,75,68,44,30,0,39,21,11,30.21,30.06,115,2,115,0.00
2013-11-23,84,70,62,42,30,18,41,24,11,30.15,30.03,9,1,9,26.80
2013-11-24,72,66,57,40,22,9,35,20,12,30.27,30.06,10,3,10,26.80
2013-11-25,78,67,57,22,14,9,17,13,10,30.27,30.03,8,2,8,0.00
2013-11-26,84,73,67,63,38,19,75,31,11,30.09,29.74,11,2,229,0.25
2013-11-27,73,63,48,63,21,4,76,24,12,30.21,29.71,17,5,17,0.29
2013-11-28,59,49,37,18,6,-2,27,17,14,30.39,30.18,11,2,11,27.26
2013-11-29,72,60,50,27,16,8,36,20,11,30.39,30.27,58,3,115,0.00
2013-11-30,78,64,54,32,21,8,37,21,10,30.33,30.18,115,2,115,0.00
2013-12-1,71,62,58,39,32,17,46,33,14,30.21,30.00,8,1,8,0.00
2013-12-2,73,64,59,50,29,12,66,33,11,30.00,29.82,7,1,7,0.00
2013-12-3,79,66,53,43,29,16,49,28,11,30.00,29.88,172,0,172,0.00
2013-12-4,81,70,64,56,36,20,57,32,12,30.09,29.94,6,0,6,27.26
2013-12-5,84,70,64,52,35,19,57,31,11,30.18,30.00,6,0,6,0.00
2013-12-6,84,72,64,63,36,20,71,32,11,30.18,30.03,8,1,8,0.00
2013-12-7,81,70,65,57,37,20,63,33,12,30.24,30.12,172,1,172,27.26
2013-12-8,85,71,63,62,36,15,73,33,11,30.21,30.06,6,0,6,0.00
2013-12-9,84,72,65,52,34,19,51,28,11,30.18,30.06,6,0,6,0.00
2013-12-10,82,71,62,62,37,22,74,33,12,30.18,30.06,8,1,8,0.00
2013-12-11,77,68,62,41,28,16,36,23,13,30.27,30.15,7,2,7,0.00
2013-12-12,70,63,50,36,21,5,37,22,12,30.33,30.12,10,2,10,0.00
2013-12-13,72,59,43,20,11,2,21,15,11,30.33,30.09,7,1,7,27.26
2013-12-14,86,72,63,41,29,18,32,21,11,30.12,29.94,10,2,10,27.26
2013-12-15,73,68,58,45,26,13,37,23,11,30.15,29.88,115,3,229,27.26
2013-12-16,59,53,45,14,9,4,22,16,14,30.27,30.12,115,2,115,0.00
2013-12-17,66,53,41,20,11,2,31,19,13,30.30,30.18,115,2,115,0.00
2013-12-18,66,53,44,31,16,6,47,25,13,30.33,30.21,9,1,9,0.00
2013-12-19,72,57,43,20,15,8,35,21,11,30.30,30.12,58,1,58,27.26
2013-12-20,82,73,58,33,24,14,35,17,10,30.21,30.06,4,1,5,27.26
2013-12-21,84,73,66,42,30,20,37,22,11,30.15,30.00,6,1,6,27.26
2013-12-22,84,73,68,52,33,20,51,25,11,30.15,30.06,10,1,10,27.26
2013-12-23,86,74,66,58,37,22,57,30,11,30.18,30.06,8,1,8,27.26
2013-12-24,71,61,49,44,19,5,37,20,13,30.30,30.12,172,3,172,27.26
2013-12-25,76,60,46,17,10,4,17,14,10,30.30,30.12,7,2,7,27.26
2013-12-26,78,65,58,27,18,11,29,17,10,30.21,30.09,8,2,8,27.26
2013-12-27,71,65,61,32,24,16,29,21,14,30.27,30.12,8,2,8,27.26
2013-12-28,82,71,64,38,29,20,34,23,12,30.21,29.97,9,2,9,27.26
2013-12-29,76,69,62,42,37,33,39,31,22,30.06,29.88,8,2,8,27.26
2013-12-30,66,62,57,38,25,16,39,25,15,30.21,30.00,8,2,8,27.26
2013-12-31,72,63,57,23,14,10,26,15,11,30.33,30.18,6,1,6,27.26
2014-1-1,63,60,57,37,27,0,64,29,14,30.27,30.06,7,2,7,27.26
2014-1-2,82,67,60,63,44,14,75,47,11,30.06,29.82,13,2,13,27.26